Morley, Tennessee
Current Conditions -  °F | °C
As of 9:53 PM on Friday 28 Nov 2014 (Local Time) from KOQT Reporting Station
Clear Clear  
Wind Chill: 31°   Ceiling: Unl
Heat Index: 31°   Visibility: 10mi
Dew Point: 23°   Wind: 0mph
Humidity: 72%   Direction: NA
Pressure: 30.25"   Gusts: NA
Location:  36.3953°N, 84.1409°W
Report Text: KOQT 290253Z AUTO 00000KT 10SM CLR M01/M05 A3025 RMK AO2 SLP260 T10061050 58009
Loading
Personal Weather Stations






























Interactive Weather Map New forecast layout! Learn more

10-Day Weather Forecast

Advertisements
Track Severe Weather on mobile